Redwood Natl Park, California
Current Conditions -  °F | °C
As of 3:56 PM on Saturday 25 Oct 2014 (Local Time) from KCEC Reporting Station
Light Rain Light Rain  
Wind Chill: 59°   Ceiling: 4400
Heat Index: 59°   Visibility: 6mi
Dew Point: 55°   Wind: 12mph
Humidity: 87%   Direction: 230°SW
Pressure: 29.93"   Gusts: NA
Location:  41.48°N, 124.06°W
Report Text: KCEC 252256Z AUTO 23010KT 6SM -RA BR SCT028 BKN044 OVC050 15/13 A2993 RMK AO2 RAB40 SLP136 P0000 T01500128
Loading
Personal Weather Stations






























Interactive Weather Map
Tropical Storm Tracking
New forecast layout! Learn more

10-Day Weather Forecast

Advertisements
Track Severe Weather on mobile